Time;durP1;ratioP1;P1;durP2;ratioP2;P2;SDS_P1;SDS_P2;PMS_P1;PMS_P2;Temp;Humidity;BMP_temperature;BMP_pressure;BME280_temperature;BME280_humidity;BME280_pressure;Samples;Min_cycle;Max_cycle;Signal;HPM_P1;HPM_P2
2023/09/19 00:01:00;;;;;;;838.10;757.10;;;;;;;;;;5028245;28;20068;-63
2023/09/19 00:03:27;;;;;;;810.38;731.03;;;;;;;;;;5030375;28;20124;-63
2023/09/19 00:05:55;;;;;;;822.42;742.10;;;;;;;;;;5029028;28;20038;-64
2023/09/19 00:08:24;;;;;;;820.03;739.28;;;;;;;;;;5031167;28;20445;-63
2023/09/19 00:10:51;;;;;;;828.80;747.50;;;;;;;;;;5030414;28;20048;-63
2023/09/19 00:13:18;;;;;;;811.28;731.38;;;;;;;;;;5030208;28;20045;-62
2023/09/19 00:15:50;;;;;;;830.97;749.75;;;;;;;;;;5029157;28;20038;-62
2023/09/19 00:18:24;;;;;;;816.25;736.10;;;;;;;;;;5031011;28;20065;-62
2023/09/19 00:20:51;;;;;;;799.25;720.05;;;;;;;;;;5032054;28;20049;-64
2023/09/19 00:23:19;;;;;;;811.85;730.75;;;;;;;;;;5031422;28;20041;-64
2023/09/19 00:25:47;;;;;;;815.60;735.50;;;;;;;;;;5032137;28;20160;-63
2023/09/19 00:28:15;;;;;;;806.85;728.00;;;;;;;;;;5031779;28;20390;-63
2023/09/19 00:30:49;;;;;;;821.92;740.95;;;;;;;;;;5039807;28;20060;-63
2023/09/19 00:33:18;;;;;;;814.30;734.28;;;;;;;;;;5024499;28;20057;-62
2023/09/19 00:35:49;;;;;;;822.20;740.40;;;;;;;;;;5030245;28;20061;-63
2023/09/19 00:38:17;;;;;;;818.85;739.10;;;;;;;;;;5027402;28;20060;-63
2023/09/19 00:40:44;;;;;;;820.20;738.40;;;;;;;;;;5028234;28;20126;-63
2023/09/19 00:43:11;;;;;;;823.65;742.45;;;;;;;;;;5038493;28;20049;-63
2023/09/19 00:45:42;;;;;;;807.70;727.83;;;;;;;;;;5027447;28;20099;-64
2023/09/19 00:48:09;;;;;;;819.88;739.13;;;;;;;;;;5030851;28;20527;-63
2023/09/19 00:50:36;;;;;;;807.80;726.38;;;;;;;;;;5028251;28;20045;-62
2023/09/19 00:53:07;;;;;;;822.80;738.00;;;;;;;;;;5027115;28;20045;-63
2023/09/19 00:55:37;;;;;;;810.80;731.38;;;;;;;;;;5027889;28;20041;-63
2023/09/19 00:58:06;;;;;;;806.95;727.42;;;;;;;;;;5025256;28;20447;-63
2023/09/19 01:00:33;;;;;;;802.20;722.40;;;;;;;;;;5031127;28;20041;-63
2023/09/19 01:03:03;;;;;;;810.20;730.05;;;;;;;;;;5026834;28;20050;-62
2023/09/19 01:05:30;;;;;;;810.85;730.35;;;;;;;;;;5029829;28;20041;-63
2023/09/19 01:07:56;;;;;;;821.30;737.53;;;;;;;;;;5028593;28;20045;-64
2023/09/19 01:10:24;;;;;;;806.97;726.70;;;;;;;;;;5029276;28;20099;-63
2023/09/19 01:12:51;;;;;;;817.63;737.22;;;;;;;;;;5028130;28;20047;-63
2023/09/19 01:15:29;;;;;;;811.53;731.42;;;;;;;;;;5027262;28;20374;-62
2023/09/19 01:18:08;;;;;;;815.63;734.40;;;;;;;;;;5028899;28;20045;-62
2023/09/19 01:20:35;;;;;;;819.80;739.35;;;;;;;;;;5022493;28;20045;-62
2023/09/19 01:23:05;;;;;;;824.78;741.78;;;;;;;;;;5028908;28;20042;-63
2023/09/19 01:25:58;;;;;;;812.05;731.67;;;;;;;;;;5030031;28;20042;-64
2023/09/19 01:28:38;;;;;;;799.80;719.75;;;;;;;;;;5029082;28;20068;-62
2023/09/19 01:31:09;;;;;;;815.20;734.78;;;;;;;;;;5019731;28;20052;-63
2023/09/19 01:33:59;;;;;;;819.90;739.33;;;;;;;;;;5029014;28;20033;-63
2023/09/19 01:36:27;;;;;;;815.47;734.22;;;;;;;;;;5029039;28;20506;-65
2023/09/19 01:38:54;;;;;;;809.95;730.25;;;;;;;;;;5030308;28;20038;-63
2023/09/19 01:41:37;;;;;;;817.33;736.83;;;;;;;;;;5027445;28;20041;-62
2023/09/19 01:44:06;;;;;;;809.03;726.97;;;;;;;;;;5028553;28;20050;-63
2023/09/19 01:46:40;;;;;;;813.72;733.20;;;;;;;;;;5019108;28;20487;-62
2023/09/19 01:49:14;;;;;;;814.25;734.90;;;;;;;;;;5028819;28;20041;-63
2023/09/19 01:52:00;;;;;;;811.95;731.15;;;;;;;;;;5029725;28;20033;-62
2023/09/19 01:54:30;;;;;;;818.35;737.45;;;;;;;;;;5041750;28;20049;-63
2023/09/19 01:57:04;;;;;;;809.30;728.58;;;;;;;;;;5018168;28;20034;-63
2023/09/19 01:59:35;;;;;;;812.22;731.90;;;;;;;;;;5030106;28;20041;-62
2023/09/19 02:02:03;;;;;;;839.63;751.08;;;;;;;;;;4118036;23;20064;-60
2023/09/19 02:04:32;;;;;;;816.78;735.38;;;;;;;;;;5068483;28;20044;-59
2023/09/19 02:06:59;;;;;;;820.65;738.60;;;;;;;;;;5052120;28;20041;-58
2023/09/19 02:09:25;;;;;;;813.72;733.22;;;;;;;;;;5051492;28;20059;-59
2023/09/19 02:11:52;;;;;;;815.58;733.88;;;;;;;;;;5069940;28;20060;-59
2023/09/19 02:14:19;;;;;;;829.88;748.38;;;;;;;;;;5049670;28;20482;-59
2023/09/19 02:16:46;;;;;;;811.22;729.78;;;;;;;;;;5074798;28;20762;-59
2023/09/19 02:19:13;;;;;;;813.50;732.60;;;;;;;;;;5070352;28;20059;-60
2023/09/19 02:21:40;;;;;;;820.33;739.17;;;;;;;;;;5045318;28;20056;-58
2023/09/19 02:24:08;;;;;;;814.60;732.85;;;;;;;;;;5055955;28;20036;-59
2023/09/19 02:26:36;;;;;;;828.70;747.10;;;;;;;;;;5071785;28;20044;-59
2023/09/19 02:29:05;;;;;;;855.22;768.83;;;;;;;;;;5055930;28;20044;-60
2023/09/19 02:31:32;;;;;;;813.42;732.83;;;;;;;;;;5070349;28;20147;-58
2023/09/19 02:34:00;;;;;;;802.75;722.45;;;;;;;;;;5064231;28;20150;-59
2023/09/19 02:36:26;;;;;;;820.42;739.42;;;;;;;;;;5055026;28;20041;-58
2023/09/19 02:38:54;;;;;;;827.65;745.90;;;;;;;;;;5071517;28;20242;-58
2023/09/19 02:41:21;;;;;;;824.63;743.15;;;;;;;;;;5069204;28;20048;-59
2023/09/19 02:43:47;;;;;;;819.05;738.35;;;;;;;;;;5068017;28;20053;-58
2023/09/19 02:46:14;;;;;;;808.30;727.80;;;;;;;;;;5048912;28;20428;-58
2023/09/19 02:48:41;;;;;;;819.15;738.00;;;;;;;;;;5048118;28;20482;-59
2023/09/19 02:51:08;;;;;;;817.22;736.50;;;;;;;;;;5070067;28;20059;-59
2023/09/19 02:53:35;;;;;;;811.78;731.10;;;;;;;;;;5071499;28;20044;-58
2023/09/19 02:56:04;;;;;;;825.30;740.05;;;;;;;;;;5055582;28;20045;-58
2023/09/19 02:58:35;;;;;;;817.38;736.78;;;;;;;;;;5072403;28;20067;-59
2023/09/19 03:01:09;;;;;;;900.38;724.20;;;;;;;;;;5072890;28;20106;-62
2023/09/19 03:03:37;;;;;;;806.30;723.97;;;;;;;;;;5067890;28;20121;-61
2023/09/19 03:06:05;;;;;;;819.33;735.90;;;;;;;;;;5049431;28;20079;-58
2023/09/19 03:08:35;;;;;;;803.80;722.72;;;;;;;;;;5046968;28;20097;-59
2023/09/19 03:11:06;;;;;;;822.95;738.60;;;;;;;;;;5066742;28;20040;-59
2023/09/19 03:13:33;;;;;;;811.70;726.85;;;;;;;;;;5051054;28;20135;-58
2023/09/19 03:16:00;;;;;;;815.28;729.05;;;;;;;;;;5050023;28;20604;-59
2023/09/19 03:18:28;;;;;;;814.65;732.70;;;;;;;;;;5051093;28;20107;-60
2023/09/19 03:21:00;;;;;;;810.47;730.30;;;;;;;;;;5047969;28;20047;-58
2023/09/19 03:23:28;;;;;;;817.92;735.72;;;;;;;;;;5065022;28;20076;-59
2023/09/19 03:25:56;;;;;;;823.05;740.45;;;;;;;;;;5048567;28;20098;-59
2023/09/19 03:28:23;;;;;;;823.35;741.30;;;;;;;;;;5072483;28;20059;-59
2023/09/19 03:31:03;;;;;;;828.67;740.17;;;;;;;;;;5054783;28;20052;-59
2023/09/19 03:33:33;;;;;;;814.30;731.97;;;;;;;;;;5066928;28;20041;-59
2023/09/19 03:36:04;;;;;;;810.78;729.03;;;;;;;;;;5061495;28;20086;-59
2023/09/19 03:38:33;;;;;;;803.42;722.33;;;;;;;;;;5072251;28;20141;-59
2023/09/19 03:41:01;;;;;;;821.63;737.90;;;;;;;;;;5053582;28;20064;-59
2023/09/19 03:43:27;;;;;;;809.97;729.47;;;;;;;;;;5069248;28;20071;-59
2023/09/19 03:45:54;;;;;;;808.92;729.00;;;;;;;;;;5049617;28;20049;-58
2023/09/19 03:48:22;;;;;;;816.08;734.90;;;;;;;;;;5042554;28;20094;-60
2023/09/19 03:50:51;;;;;;;813.45;733.33;;;;;;;;;;5068227;28;20056;-59
2023/09/19 03:53:18;;;;;;;829.92;747.00;;;;;;;;;;5069023;28;20067;-59
2023/09/19 03:55:46;;;;;;;809.92;730.50;;;;;;;;;;5073341;28;20044;-59
2023/09/19 03:58:13;;;;;;;819.47;738.70;;;;;;;;;;5068900;28;20040;-60
2023/09/19 04:00:40;;;;;;;820.50;738.47;;;;;;;;;;5070377;28;20032;-60
2023/09/19 04:03:07;;;;;;;822.92;741.20;;;;;;;;;;5069800;28;20052;-59
2023/09/19 04:05:34;;;;;;;818.92;737.40;;;;;;;;;;5054024;28;20036;-59
2023/09/19 04:08:01;;;;;;;840.90;755.42;;;;;;;;;;5071718;28;20076;-58
2023/09/19 04:10:28;;;;;;;822.65;736.90;;;;;;;;;;5067928;28;20082;-58
2023/09/19 04:12:55;;;;;;;833.13;750.78;;;;;;;;;;5053638;28;20125;-58
2023/09/19 04:15:23;;;;;;;816.50;735.70;;;;;;;;;;5066087;28;20137;-59
2023/09/19 04:17:52;;;;;;;828.00;745.17;;;;;;;;;;5048771;28;20051;-59
2023/09/19 04:20:25;;;;;;;823.92;742.30;;;;;;;;;;5051820;28;20093;-58
2023/09/19 04:22:52;;;;;;;827.45;745.35;;;;;;;;;;5052976;28;20049;-59
2023/09/19 04:25:19;;;;;;;821.08;736.47;;;;;;;;;;5064349;28;20523;-59
2023/09/19 04:27:46;;;;;;;819.03;737.47;;;;;;;;;;5047966;28;20076;-59
2023/09/19 04:30:14;;;;;;;810.28;723.22;;;;;;;;;;5052207;28;20095;-59
2023/09/19 04:32:41;;;;;;;827.75;741.92;;;;;;;;;;5068569;28;20040;-59
2023/09/19 04:35:09;;;;;;;825.78;741.38;;;;;;;;;;5069423;28;20113;-61
2023/09/19 04:37:37;;;;;;;805.85;724.60;;;;;;;;;;5070465;28;20051;-60
2023/09/19 04:40:06;;;;;;;820.72;738.58;;;;;;;;;;5063826;28;20127;-59
2023/09/19 04:42:32;;;;;;;810.28;728.97;;;;;;;;;;5063097;28;20051;-58
2023/09/19 04:44:59;;;;;;;808.50;727.95;;;;;;;;;;5065196;28;20047;-58
2023/09/19 04:47:26;;;;;;;819.67;736.72;;;;;;;;;;5067477;28;20048;-59
2023/09/19 04:49:53;;;;;;;803.55;720.50;;;;;;;;;;5070954;28;20548;-63
2023/09/19 04:52:20;;;;;;;806.75;724.33;;;;;;;;;;5068173;28;20514;-59
2023/09/19 04:54:48;;;;;;;806.50;723.40;;;;;;;;;;5068070;28;20071;-59
2023/09/19 04:57:15;;;;;;;814.55;731.45;;;;;;;;;;5067745;28;20486;-59
2023/09/19 04:59:42;;;;;;;816.10;732.85;;;;;;;;;;5067116;28;20140;-59
2023/09/19 05:02:09;;;;;;;849.58;724.70;;;;;;;;;;5068702;28;20065;-59
2023/09/19 05:04:36;;;;;;;824.95;739.60;;;;;;;;;;5070340;28;20051;-58
2023/09/19 05:07:03;;;;;;;832.55;750.40;;;;;;;;;;5067469;28;20048;-58
2023/09/19 05:09:29;;;;;;;828.78;744.17;;;;;;;;;;5064120;28;20048;-58
2023/09/19 05:11:56;;;;;;;849.22;757.38;;;;;;;;;;5067030;28;20491;-60
2023/09/19 05:14:23;;;;;;;1999.90;851.33;;;;;;;;;;5063750;28;20048;-59
2023/09/19 05:16:50;;;;;;;1910.88;786.95;;;;;;;;;;5071847;28;20038;-58
2023/09/19 05:19:16;;;;;;;1469.50;787.45;;;;;;;;;;5066435;28;20456;-59
2023/09/19 05:21:43;;;;;;;1276.80;781.40;;;;;;;;;;5066760;28;20452;-59
2023/09/19 05:24:12;;;;;;;1999.90;842.20;;;;;;;;;;5066301;28;20399;-59
2023/09/19 05:26:39;;;;;;;1118.45;803.85;;;;;;;;;;5062523;28;20065;-59
2023/09/19 05:29:07;;;;;;;1329.95;804.33;;;;;;;;;;5069297;28;20098;-60
2023/09/19 05:31:36;;;;;;;900.25;802.55;;;;;;;;;;5069980;28;20132;-59
2023/09/19 05:34:03;;;;;;;907.30;821.28;;;;;;;;;;5067099;28;20098;-59
2023/09/19 05:36:30;;;;;;;900.88;815.55;;;;;;;;;;5067747;28;20040;-58
2023/09/19 05:38:56;;;;;;;904.00;817.95;;;;;;;;;;5066622;28;20036;-61
2023/09/19 05:41:23;;;;;;;915.38;828.55;;;;;;;;;;5067726;28;20072;-60
2023/09/19 05:43:50;;;;;;;917.08;830.30;;;;;;;;;;5063883;28;20060;-58
2023/09/19 05:46:17;;;;;;;932.22;843.05;;;;;;;;;;5067027;28;20428;-59
2023/09/19 05:48:44;;;;;;;928.60;840.33;;;;;;;;;;5067364;28;20362;-58
2023/09/19 05:51:10;;;;;;;924.25;835.72;;;;;;;;;;5067063;28;20382;-59
2023/09/19 05:53:37;;;;;;;924.72;834.95;;;;;;;;;;5067418;28;20047;-58
2023/09/19 05:56:04;;;;;;;929.90;836.15;;;;;;;;;;5069399;28;20040;-60
2023/09/19 05:58:31;;;;;;;922.70;836.08;;;;;;;;;;5069657;28;20044;-59
2023/09/19 06:00:58;;;;;;;914.10;827.15;;;;;;;;;;5059555;28;20451;-59
2023/09/19 06:03:26;;;;;;;922.75;836.67;;;;;;;;;;5068216;28;20520;-59
2023/09/19 06:05:57;;;;;;;915.95;831.13;;;;;;;;;;5068041;28;20551;-59
2023/09/19 06:08:23;;;;;;;905.60;819.30;;;;;;;;;;5068115;28;20038;-59
2023/09/19 06:10:52;;;;;;;915.17;828.15;;;;;;;;;;5069475;28;20055;-58
2023/09/19 06:13:19;;;;;;;912.53;827.20;;;;;;;;;;5068481;28;20132;-59
2023/09/19 06:15:49;;;;;;;906.28;819.50;;;;;;;;;;5066177;28;20127;-59
2023/09/19 06:18:19;;;;;;;911.45;825.78;;;;;;;;;;5065906;28;20466;-62
2023/09/19 06:20:47;;;;;;;919.72;831.63;;;;;;;;;;5065735;28;20438;-59
2023/09/19 06:23:13;;;;;;;937.03;849.10;;;;;;;;;;5067745;28;20378;-61
2023/09/19 06:25:40;;;;;;;928.58;842.65;;;;;;;;;;5070036;28;20121;-59
2023/09/19 06:28:08;;;;;;;937.75;851.50;;;;;;;;;;5066758;28;20053;-59
2023/09/19 06:30:34;;;;;;;950.55;861.53;;;;;;;;;;5067174;28;20062;-59
2023/09/19 06:33:02;;;;;;;941.60;854.55;;;;;;;;;;5066697;28;20045;-59
2023/09/19 06:35:32;;;;;;;928.70;842.40;;;;;;;;;;5063351;28;20037;-60
2023/09/19 06:38:02;;;;;;;934.10;843.85;;;;;;;;;;5066190;28;20107;-59
2023/09/19 06:40:30;;;;;;;936.88;851.10;;;;;;;;;;5066697;28;20044;-59
2023/09/19 06:42:58;;;;;;;1999.90;853.35;;;;;;;;;;5058713;28;20506;-59
2023/09/19 06:45:26;;;;;;;1405.80;844.45;;;;;;;;;;5062152;28;20424;-59
2023/09/19 06:47:57;;;;;;;944.05;852.35;;;;;;;;;;5061551;28;20055;-59
2023/09/19 06:50:25;;;;;;;942.58;848.03;;;;;;;;;;5064223;28;20466;-61
2023/09/19 06:52:53;;;;;;;954.08;866.05;;;;;;;;;;5066670;28;20048;-60
2023/09/19 06:55:21;;;;;;;954.53;863.03;;;;;;;;;;5068980;28;20040;-59
2023/09/19 06:57:48;;;;;;;962.35;874.55;;;;;;;;;;5069060;28;20532;-59
2023/09/19 07:00:15;;;;;;;985.35;896.75;;;;;;;;;;5069530;28;20485;-59
2023/09/19 07:02:42;;;;;;;1012.67;903.42;;;;;;;;;;5069144;28;20095;-59
2023/09/19 07:05:09;;;;;;;1016.65;921.00;;;;;;;;;;5071604;28;20037;-60
2023/09/19 07:07:36;;;;;;;1005.35;916.10;;;;;;;;;;5073009;28;20045;-59
2023/09/19 07:10:05;;;;;;;1015.20;923.75;;;;;;;;;;5071454;28;20532;-59
2023/09/19 07:12:32;;;;;;;1008.92;918.67;;;;;;;;;;5070261;28;20509;-59
2023/09/19 07:14:59;;;;;;;1017.08;926.63;;;;;;;;;;5069956;28;20405;-59
2023/09/19 07:17:26;;;;;;;1016.95;926.80;;;;;;;;;;5069484;28;20041;-61
2023/09/19 07:19:52;;;;;;;1021.90;930.88;;;;;;;;;;5073902;28;20045;-60
2023/09/19 07:22:19;;;;;;;1037.25;944.47;;;;;;;;;;5070273;28;20052;-59
2023/09/19 07:24:46;;;;;;;1042.15;949.22;;;;;;;;;;5069460;28;20091;-61
2023/09/19 07:27:13;;;;;;;1060.18;945.40;;;;;;;;;;5065892;28;20104;-60
2023/09/19 07:29:40;;;;;;;1040.72;931.78;;;;;;;;;;5069848;28;20531;-60
2023/09/19 07:32:06;;;;;;;1046.60;941.47;;;;;;;;;;5071562;28;20056;-59
2023/09/19 07:34:33;;;;;;;1171.95;932.65;;;;;;;;;;5072771;28;20048;-59
2023/09/19 07:37:00;;;;;;;1834.38;939.53;;;;;;;;;;5070346;28;20067;-59
2023/09/19 07:39:26;;;;;;;1194.07;935.80;;;;;;;;;;5067449;28;20048;-59
2023/09/19 07:41:54;;;;;;;1999.90;927.63;;;;;;;;;;5067761;28;20041;-59
2023/09/19 07:44:21;;;;;;;1279.70;938.75;;;;;;;;;;5066327;28;20045;-59
2023/09/19 07:46:50;;;;;;;1031.80;935.72;;;;;;;;;;5073111;28;20053;-59
2023/09/19 07:49:17;;;;;;;1919.70;930.33;;;;;;;;;;5054385;28;20059;-60
2023/09/19 07:51:46;;;;;;;1031.53;937.58;;;;;;;;;;5068467;28;20370;-60
2023/09/19 07:54:16;;;;;;;1029.53;936.88;;;;;;;;;;5068661;28;20048;-60
2023/09/19 07:56:45;;;;;;;1025.35;931.45;;;;;;;;;;5054421;28;20082;-59
2023/09/19 07:59:13;;;;;;;1925.50;926.97;;;;;;;;;;5070442;28;20045;-60
2023/09/19 08:01:40;;;;;;;1999.90;926.83;;;;;;;;;;5071337;28;20048;-59
2023/09/19 08:04:07;;;;;;;1363.32;926.25;;;;;;;;;;5066680;28;20045;-60
2023/09/19 08:06:34;;;;;;;1029.38;935.80;;;;;;;;;;5067981;28;20456;-60
2023/09/19 08:09:07;;;;;;;1999.90;927.50;;;;;;;;;;5068941;28;20040;-61
2023/09/19 08:11:33;;;;;;;1999.90;921.40;;;;;;;;;;5064861;28;20102;-59
2023/09/19 08:14:00;;;;;;;1999.90;913.90;;;;;;;;;;5068837;28;20048;-60
2023/09/19 08:16:27;;;;;;;1025.18;932.47;;;;;;;;;;5068774;28;20051;-59
2023/09/19 08:18:55;;;;;;;1029.63;937.67;;;;;;;;;;5067791;28;20064;-60
2023/09/19 08:21:23;;;;;;;1024.18;933.55;;;;;;;;;;5068222;28;20041;-59
2023/09/19 08:23:50;;;;;;;1020.22;926.20;;;;;;;;;;5067845;28;20136;-59
2023/09/19 08:26:17;;;;;;;1021.78;930.13;;;;;;;;;;5069097;28;20387;-60
2023/09/19 08:28:43;;;;;;;1019.10;928.83;;;;;;;;;;5071407;28;20052;-59
2023/09/19 08:31:10;;;;;;;1016.42;924.85;;;;;;;;;;5067353;28;20045;-60
2023/09/19 08:33:37;;;;;;;1018.88;928.17;;;;;;;;;;5065316;28;20048;-59
2023/09/19 08:36:06;;;;;;;1010.58;921.40;;;;;;;;;;5070487;28;20052;-59
2023/09/19 08:38:33;;;;;;;1014.20;923.47;;;;;;;;;;5067402;28;20359;-59
2023/09/19 08:41:00;;;;;;;1028.15;933.45;;;;;;;;;;5071034;28;20044;-59
2023/09/19 08:43:27;;;;;;;1028.57;937.17;;;;;;;;;;5053903;28;20049;-59
2023/09/19 08:45:58;;;;;;;1033.43;941.72;;;;;;;;;;5067544;28;20155;-59
2023/09/19 08:48:25;;;;;;;1041.30;949.80;;;;;;;;;;5067682;28;20397;-59
2023/09/19 08:50:55;;;;;;;1028.82;939.58;;;;;;;;;;5065716;28;20476;-59
2023/09/19 08:53:46;;;;;;;1035.63;935.97;;;;;;;;;;5068034;28;20471;-61
2023/09/19 08:56:13;;;;;;;1594.50;925.55;;;;;;;;;;5009007;28;20053;-59
2023/09/19 08:58:44;;;;;;;1032.53;927.33;;;;;;;;;;4993672;28;20092;-59
2023/09/19 09:01:13;;;;;;;1024.03;927.85;;;;;;;;;;5008543;28;20081;-60
2023/09/19 09:03:40;;;;;;;1171.18;921.38;;;;;;;;;;4990183;28;20436;-59
2023/09/19 09:06:10;;;;;;;1026.75;933.78;;;;;;;;;;4989178;28;20054;-59
2023/09/19 09:08:37;;;;;;;1041.20;932.85;;;;;;;;;;4972991;28;20061;-59
2023/09/19 09:11:07;;;;;;;1032.38;938.25;;;;;;;;;;4989416;28;20062;-61
2023/09/19 09:13:36;;;;;;;1021.60;929.28;;;;;;;;;;4989837;28;20491;-59
2023/09/19 09:16:03;;;;;;;1026.75;935.17;;;;;;;;;;4988945;28;20062;-58
2023/09/19 09:18:30;;;;;;;1025.82;931.67;;;;;;;;;;4988860;28;20416;-59
2023/09/19 09:20:56;;;;;;;1022.58;931.08;;;;;;;;;;4989100;28;20054;-61
2023/09/19 09:23:25;;;;;;;1018.35;920.72;;;;;;;;;;4988917;28;20038;-59
2023/09/19 09:26:06;;;;;;;1017.88;925.53;;;;;;;;;;4989829;28;20050;-59
2023/09/19 09:28:35;;;;;;;1013.97;918.38;;;;;;;;;;4990095;28;20053;-59
2023/09/19 09:31:09;;;;;;;1005.65;917.00;;;;;;;;;;4989191;28;20514;-59
2023/09/19 09:33:36;;;;;;;997.65;907.42;;;;;;;;;;5006716;28;20474;-59
2023/09/19 09:36:04;;;;;;;996.72;908.13;;;;;;;;;;5043145;28;20036;-59
2023/09/19 09:38:45;;;;;;;994.55;905.22;;;;;;;;;;5043116;28;20051;-60
2023/09/19 09:41:15;;;;;;;988.10;897.47;;;;;;;;;;5047900;28;20063;-61
2023/09/19 09:43:46;;;;;;;1646.20;888.28;;;;;;;;;;5046021;28;20102;-60
2023/09/19 09:49:16;;;;;;;1380.68;893.17;;;;;;;;;;5046579;28;20045;-58
2023/09/19 09:51:57;;;;;;;1064.78;880.45;;;;;;;;;;5044759;28;20127;-59
2023/09/19 09:54:28;;;;;;;980.15;885.70;;;;;;;;;;5046714;28;20068;-58
2023/09/19 09:56:59;;;;;;;971.38;883.10;;;;;;;;;;5046917;28;20421;-59
2023/09/19 09:59:46;;;;;;;974.40;884.83;;;;;;;;;;5046827;28;20064;-59
2023/09/19 10:02:36;;;;;;;1012.60;880.00;;;;;;;;;;5048016;28;20493;-60
2023/09/19 10:05:14;;;;;;;966.13;875.25;;;;;;;;;;5067362;28;20060;-59
2023/09/19 10:07:47;;;;;;;961.25;875.25;;;;;;;;;;5069856;28;20135;-58
2023/09/19 10:10:20;;;;;;;952.95;863.95;;;;;;;;;;5066630;28;20041;-58
2023/09/19 10:12:48;;;;;;;941.47;855.08;;;;;;;;;;5067226;28;20037;-58
2023/09/19 10:15:16;;;;;;;944.38;857.00;;;;;;;;;;5066817;28;20154;-59
2023/09/19 10:17:44;;;;;;;952.67;864.97;;;;;;;;;;5066722;28;20044;-59
2023/09/19 10:20:33;;;;;;;949.83;859.22;;;;;;;;;;5068483;28;20045;-58
2023/09/19 10:23:00;;;;;;;949.17;859.33;;;;;;;;;;5067684;28;20045;-59
2023/09/19 10:25:31;;;;;;;943.08;856.70;;;;;;;;;;5068375;28;20072;-59
2023/09/19 10:28:02;;;;;;;939.20;852.53;;;;;;;;;;5066975;28;20090;-59
2023/09/19 10:30:30;;;;;;;947.47;859.42;;;;;;;;;;5071626;28;20043;-58
2023/09/19 10:33:00;;;;;;;936.25;849.67;;;;;;;;;;5071892;28;20049;-59
2023/09/19 10:35:27;;;;;;;934.08;847.35;;;;;;;;;;5069081;28;20111;-58
2023/09/19 10:37:54;;;;;;;929.05;843.28;;;;;;;;;;5072310;28;20044;-58
2023/09/19 10:40:26;;;;;;;921.67;835.88;;;;;;;;;;5070621;28;20056;-59
2023/09/19 10:42:54;;;;;;;927.55;836.75;;;;;;;;;;5069886;28;20658;-59
2023/09/19 10:45:21;;;;;;;920.80;835.08;;;;;;;;;;5068087;28;20381;-58
2023/09/19 10:47:47;;;;;;;926.22;838.50;;;;;;;;;;5071196;28;20046;-59
2023/09/19 10:50:23;;;;;;;927.25;837.08;;;;;;;;;;5061725;28;20037;-59
2023/09/19 10:52:57;;;;;;;920.85;834.92;;;;;;;;;;5072544;28;20044;-58
2023/09/19 10:55:27;;;;;;;927.72;840.95;;;;;;;;;;5071805;28;20117;-59
2023/09/19 10:57:57;;;;;;;917.38;832.22;;;;;;;;;;5067334;28;20114;-58
2023/09/19 11:00:26;;;;;;;907.17;823.03;;;;;;;;;;5069371;28;20036;-58
2023/09/19 11:03:11;;;;;;;913.47;828.60;;;;;;;;;;5068749;28;20076;-59
2023/09/19 11:05:40;;;;;;;928.35;841.97;;;;;;;;;;5066266;28;20037;-59
2023/09/19 11:08:07;;;;;;;931.45;842.35;;;;;;;;;;5072535;28;20040;-59
2023/09/19 11:10:47;;;;;;;928.33;841.90;;;;;;;;;;5071175;28;20040;-59
2023/09/19 11:13:23;;;;;;;923.55;837.97;;;;;;;;;;5068768;28;20047;-59
2023/09/19 11:15:59;;;;;;;933.42;846.97;;;;;;;;;;5070477;28;20120;-59
2023/09/19 11:18:40;;;;;;;925.80;840.67;;;;;;;;;;5068413;28;20036;-59
2023/09/19 11:21:30;;;;;;;935.80;849.42;;;;;;;;;;5066218;28;20048;-59
2023/09/19 11:24:09;;;;;;;922.40;837.47;;;;;;;;;;5068691;28;20032;-59
2023/09/19 11:26:48;;;;;;;926.22;841.53;;;;;;;;;;5065840;28;20041;-59
2023/09/19 11:29:25;;;;;;;941.50;852.33;;;;;;;;;;5071120;28;20043;-59
2023/09/19 11:31:53;;;;;;;941.17;854.55;;;;;;;;;;5073164;28;20048;-58
2023/09/19 11:34:38;;;;;;;924.95;841.05;;;;;;;;;;5069059;28;20056;-58
2023/09/19 11:37:14;;;;;;;921.95;836.40;;;;;;;;;;5066427;28;20048;-59
2023/09/19 11:55:04;;;;;;;957.70;871.42;;;;;;;;;;6262980;22;1245073;-59
2023/09/19 11:57:31;;;;;;;952.40;865.30;;;;;;;;;;6314017;22;20015;-60
2023/09/19 11:59:58;;;;;;;943.35;857.60;;;;;;;;;;6314335;22;20306;-60
2023/09/19 12:02:37;;;;;;;951.55;865.97;;;;;;;;;;6314793;22;20026;-59
2023/09/19 12:05:04;;;;;;;951.60;863.58;;;;;;;;;;6314895;22;20035;-59
2023/09/19 12:07:41;;;;;;;936.42;851.60;;;;;;;;;;6315109;22;20019;-59
2023/09/19 12:10:12;;;;;;;933.65;848.47;;;;;;;;;;6314494;22;20072;-60
2023/09/19 12:12:38;;;;;;;942.20;856.25;;;;;;;;;;6314368;22;20050;-59
2023/09/19 12:15:06;;;;;;;953.63;866.85;;;;;;;;;;6314487;22;20437;-60
2023/09/19 12:17:43;;;;;;;938.15;851.25;;;;;;;;;;6313960;22;20042;-60
2023/09/19 12:20:12;;;;;;;944.70;856.83;;;;;;;;;;6314645;22;20011;-58
2023/09/19 12:22:43;;;;;;;934.58;848.45;;;;;;;;;;6314446;22;20343;-60
2023/09/19 12:25:11;;;;;;;941.45;855.47;;;;;;;;;;6314559;22;20374;-59
2023/09/19 12:27:43;;;;;;;935.47;850.80;;;;;;;;;;6314274;22;20078;-60
2023/09/19 12:30:14;;;;;;;941.60;855.40;;;;;;;;;;6314109;22;20011;-59
2023/09/19 12:32:55;;;;;;;;;;;;;;;;;;6314445;22;20086;-60
2023/09/19 12:35:30;;;;;;;925.72;840.70;;;;;;;;;;6314389;22;19927;-60
2023/09/19 12:37:57;;;;;;;927.08;842.88;;;;;;;;;;6315119;22;20011;-59
2023/09/19 12:40:27;;;;;;;932.03;847.35;;;;;;;;;;6312615;22;20064;-59
2023/09/19 12:42:58;;;;;;;926.28;842.47;;;;;;;;;;6313636;22;20444;-60
2023/09/19 12:45:25;;;;;;;933.80;849.50;;;;;;;;;;6287131;22;20554;-60
2023/09/19 12:48:10;;;;;;;956.42;869.33;;;;;;;;;;6313230;22;20388;-60
2023/09/19 12:50:57;;;;;;;941.08;855.63;;;;;;;;;;6314158;22;20019;-59
2023/09/19 12:53:29;;;;;;;937.88;851.58;;;;;;;;;;6307103;22;20060;-59
2023/09/19 12:55:59;;;;;;;934.00;848.72;;;;;;;;;;6307694;22;20057;-59
2023/09/19 12:58:26;;;;;;;941.22;855.65;;;;;;;;;;6306821;22;20024;-60
2023/09/19 13:00:53;;;;;;;933.42;849.63;;;;;;;;;;6306499;22;20646;-59
2023/09/19 13:03:24;;;;;;;947.97;862.15;;;;;;;;;;6304995;22;20018;-59
2023/09/19 13:05:53;;;;;;;934.00;849.35;;;;;;;;;;6307194;22;20029;-59
2023/09/19 13:08:21;;;;;;;931.63;846.88;;;;;;;;;;6306769;22;20192;-59
2023/09/19 13:11:12;;;;;;;931.17;846.38;;;;;;;;;;6307643;22;20094;-58
2023/09/19 13:13:53;;;;;;;935.50;850.80;;;;;;;;;;6307493;22;20491;-60
2023/09/19 13:16:25;;;;;;;939.47;854.28;;;;;;;;;;6307332;22;20019;-60
2023/09/19 13:18:57;;;;;;;934.47;849.67;;;;;;;;;;6306862;22;20011;-60
2023/09/19 13:21:36;;;;;;;930.65;846.33;;;;;;;;;;6306904;22;20294;-59
2023/09/19 13:24:20;;;;;;;927.15;842.20;;;;;;;;;;6305171;22;20023;-59
2023/09/19 13:26:47;;;;;;;;;;;;;;;;;;6307514;22;20046;-59
2023/09/19 13:29:17;;;;;;;921.72;833.88;;;;;;;;;;6307071;22;19922;-59
2023/09/19 13:31:47;;;;;;;923.95;839.50;;;;;;;;;;6307547;22;20049;-60
2023/09/19 13:34:17;;;;;;;926.88;841.13;;;;;;;;;;6306768;22;20437;-60
2023/09/19 13:36:44;;;;;;;928.65;843.28;;;;;;;;;;6306653;22;20023;-59
2023/09/19 13:39:13;;;;;;;930.00;843.13;;;;;;;;;;6306443;22;20065;-60
2023/09/19 13:41:39;;;;;;;924.67;839.25;;;;;;;;;;6306346;22;20016;-60
2023/09/19 13:44:06;;;;;;;945.05;856.38;;;;;;;;;;6306221;22;20433;-58
2023/09/19 13:46:34;;;;;;;943.08;854.50;;;;;;;;;;6307056;22;20019;-59
2023/09/19 13:49:03;;;;;;;932.88;846.65;;;;;;;;;;6306324;22;20053;-60
2023/09/19 13:51:33;;;;;;;930.90;846.30;;;;;;;;;;6306528;22;20015;-59
2023/09/19 13:53:59;;;;;;;934.53;848.80;;;;;;;;;;6306551;22;20030;-59
2023/09/19 13:56:30;;;;;;;939.38;852.70;;;;;;;;;;6306656;22;20023;-60
2023/09/19 13:58:57;;;;;;;941.28;855.83;;;;;;;;;;6306877;22;20027;-59
2023/09/19 14:01:26;;;;;;;936.42;851.17;;;;;;;;;;6306402;22;20011;-60
2023/09/19 14:03:54;;;;;;;932.65;847.97;;;;;;;;;;6306126;22;20086;-60
2023/09/19 14:06:21;;;;;;;943.08;856.38;;;;;;;;;;6306654;22;20019;-59
2023/09/19 14:08:47;;;;;;;940.20;852.60;;;;;;;;;;6306290;22;20023;-59
2023/09/19 14:11:15;;;;;;;946.53;857.17;;;;;;;;;;6306419;22;20025;-59
2023/09/19 14:13:46;;;;;;;935.45;849.67;;;;;;;;;;6306908;22;20019;-60
2023/09/19 14:16:13;;;;;;;940.55;854.17;;;;;;;;;;6306306;22;20019;-60
2023/09/19 14:18:40;;;;;;;941.17;854.53;;;;;;;;;;6304856;22;20035;-60
2023/09/19 14:21:11;;;;;;;935.47;849.75;;;;;;;;;;6306177;22;20034;-60
2023/09/19 14:23:38;;;;;;;926.25;841.33;;;;;;;;;;6306592;22;20433;-59